sensor_id;sensor_type;location;lat;lon;timestamp;P1;P2;P0
12542;PMS3003;6337;49.556;25.594;2023-03-03T00:04:38;19.65;9.30;
12542;PMS3003;6337;49.556;25.594;2023-03-03T00:07:07;17.60;8.95;
12542;PMS3003;6337;49.556;25.594;2023-03-03T00:09:35;19.02;9.95;
12542;PMS3003;6337;49.556;25.594;2023-03-03T00:12:10;24.35;13.32;
12542;PMS3003;6337;49.556;25.594;2023-03-03T00:14:46;20.23;11.85;
12542;PMS3003;6337;49.556;25.594;2023-03-03T00:17:18;21.45;12.23;
12542;PMS3003;6337;49.556;25.594;2023-03-03T00:20:28;24.83;13.05;
12542;PMS3003;6337;49.556;25.594;2023-03-03T03:43:24;27.38;15.23;
12542;PMS3003;6337;49.556;25.594;2023-03-03T03:45:52;39.00;16.73;
12542;PMS3003;6337;49.556;25.594;2023-03-03T03:48:34;38.65;17.80;
12542;PMS3003;6337;49.556;25.594;2023-03-03T03:51:02;33.25;17.88;
12542;PMS3003;6337;49.556;25.594;2023-03-03T03:53:31;34.35;18.52;
12542;PMS3003;6337;49.556;25.594;2023-03-03T03:59:07;33.50;17.10;
12542;PMS3003;6337;49.556;25.594;2023-03-03T04:01:45;37.80;20.45;
12542;PMS3003;6337;49.556;25.594;2023-03-03T04:04:14;37.97;23.35;
12542;PMS3003;6337;49.556;25.594;2023-03-03T04:06:42;39.33;20.27;
12542;PMS3003;6337;49.556;25.594;2023-03-03T04:09:13;40.40;20.13;
12542;PMS3003;6337;49.556;25.594;2023-03-03T04:11:41;39.88;22.17;
12542;PMS3003;6337;49.556;25.594;2023-03-03T04:20:28;47.55;24.63;
12542;PMS3003;6337;49.556;25.594;2023-03-03T04:22:56;42.03;25.25;
12542;PMS3003;6337;49.556;25.594;2023-03-03T04:25:24;50.20;26.65;
12542;PMS3003;6337;49.556;25.594;2023-03-03T04:30:56;42.38;23.85;
12542;PMS3003;6337;49.556;25.594;2023-03-03T04:33:24;41.38;22.92;
12542;PMS3003;6337;49.556;25.594;2023-03-03T04:35:52;39.20;23.17;
12542;PMS3003;6337;49.556;25.594;2023-03-03T05:47:02;26.50;14.85;
12542;PMS3003;6337;49.556;25.594;2023-03-03T05:49:32;26.65;15.93;
12542;PMS3003;6337;49.556;25.594;2023-03-03T05:52:03;28.85;16.20;
12542;PMS3003;6337;49.556;25.594;2023-03-03T05:54:39;34.38;18.20;
12542;PMS3003;6337;49.556;25.594;2023-03-03T05:57:09;36.53;17.40;
12542;PMS3003;6337;49.556;25.594;2023-03-03T05:59:37;37.22;19.90;
12542;PMS3003;6337;49.556;25.594;2023-03-03T06:02:07;42.25;21.08;
12542;PMS3003;6337;49.556;25.594;2023-03-03T06:04:39;32.05;17.35;
12542;PMS3003;6337;49.556;25.594;2023-03-03T06:07:09;35.85;20.17;
12542;PMS3003;6337;49.556;25.594;2023-03-03T06:09:37;40.42;19.13;
12542;PMS3003;6337;49.556;25.594;2023-03-03T06:12:04;34.17;19.00;
12542;PMS3003;6337;49.556;25.594;2023-03-03T06:14:32;28.52;16.65;
12542;PMS3003;6337;49.556;25.594;2023-03-03T06:17:02;31.00;16.35;
12542;PMS3003;6337;49.556;25.594;2023-03-03T06:19:42;29.23;16.38;
12542;PMS3003;6337;49.556;25.594;2023-03-03T06:25:37;39.28;17.30;
12542;PMS3003;6337;49.556;25.594;2023-03-03T06:31:18;21.30;13.05;
12542;PMS3003;6337;49.556;25.594;2023-03-03T06:37:09;27.02;14.20;
12542;PMS3003;6337;49.556;25.594;2023-03-03T06:42:41;21.92;12.85;
12542;PMS3003;6337;49.556;25.594;2023-03-03T06:51:38;19.90;13.88;
12542;PMS3003;6337;49.556;25.594;2023-03-03T06:54:28;21.90;14.20;
12542;PMS3003;6337;49.556;25.594;2023-03-03T06:56:58;26.40;14.20;
12542;PMS3003;6337;49.556;25.594;2023-03-03T06:59:29;19.00;12.73;
12542;PMS3003;6337;49.556;25.594;2023-03-03T07:05:16;21.20;13.63;
12542;PMS3003;6337;49.556;25.594;2023-03-03T07:11:10;22.30;12.90;
12542;PMS3003;6337;49.556;25.594;2023-03-03T07:17:16;19.00;10.73;
12542;PMS3003;6337;49.556;25.594;2023-03-03T07:23:04;25.83;12.40;
12542;PMS3003;6337;49.556;25.594;2023-03-03T07:25:42;20.87;12.43;
12542;PMS3003;6337;49.556;25.594;2023-03-03T07:28:14;22.83;13.03;
12542;PMS3003;6337;49.556;25.594;2023-03-03T07:37:28;34.53;18.77;
12542;PMS3003;6337;49.556;25.594;2023-03-03T07:46:04;16.10;12.13;
12542;PMS3003;6337;49.556;25.594;2023-03-03T08:11:33;24.43;15.03;
12542;PMS3003;6337;49.556;25.594;2023-03-03T09:24:44;27.20;17.00;
12542;PMS3003;6337;49.556;25.594;2023-03-03T09:33:39;38.93;18.30;
12542;PMS3003;6337;49.556;25.594;2023-03-03T09:36:18;81.60;18.20;
12542;PMS3003;6337;49.556;25.594;2023-03-03T09:39:10;35.23;18.60;
12542;PMS3003;6337;49.556;25.594;2023-03-03T09:57:31;35.17;18.60;
12542;PMS3003;6337;49.556;25.594;2023-03-03T10:00:49;38.67;20.03;
12542;PMS3003;6337;49.556;25.594;2023-03-03T10:07:05;43.53;19.20;
12542;PMS3003;6337;49.556;25.594;2023-03-03T10:09:44;41.78;21.08;
12542;PMS3003;6337;49.556;25.594;2023-03-03T10:12:34;43.60;19.38;
12542;PMS3003;6337;49.556;25.594;2023-03-03T10:18:48;40.27;21.13;
12542;PMS3003;6337;49.556;25.594;2023-03-03T10:21:23;53.80;25.57;
12542;PMS3003;6337;49.556;25.594;2023-03-03T10:27:16;57.05;27.30;
12542;PMS3003;6337;49.556;25.594;2023-03-03T10:29:53;68.78;26.77;
12542;PMS3003;6337;49.556;25.594;2023-03-03T10:32:32;53.83;24.38;
12542;PMS3003;6337;49.556;25.594;2023-03-03T10:35:05;54.80;27.17;
12542;PMS3003;6337;49.556;25.594;2023-03-03T10:37:55;57.10;26.15;
12542;PMS3003;6337;49.556;25.594;2023-03-03T10:40:28;56.13;26.08;
12542;PMS3003;6337;49.556;25.594;2023-03-03T10:43:05;52.72;26.83;
12542;PMS3003;6337;49.556;25.594;2023-03-03T10:48:40;54.20;27.85;
12542;PMS3003;6337;49.556;25.594;2023-03-03T10:51:26;68.47;27.90;
12542;PMS3003;6337;49.556;25.594;2023-03-03T10:54:24;56.70;28.30;
12542;PMS3003;6337;49.556;25.594;2023-03-03T11:00:37;62.55;25.75;
12542;PMS3003;6337;49.556;25.594;2023-03-03T11:06:39;68.53;29.48;
12542;PMS3003;6337;49.556;25.594;2023-03-03T11:12:40;54.38;23.48;
12542;PMS3003;6337;49.556;25.594;2023-03-03T11:15:22;58.55;28.85;
12542;PMS3003;6337;49.556;25.594;2023-03-03T11:18:00;58.13;25.85;
12542;PMS3003;6337;49.556;25.594;2023-03-03T11:20:35;66.43;27.15;
12542;PMS3003;6337;49.556;25.594;2023-03-03T11:23:11;84.10;30.30;
12542;PMS3003;6337;49.556;25.594;2023-03-03T11:25:50;67.70;27.67;
12542;PMS3003;6337;49.556;25.594;2023-03-03T11:28:33;66.03;30.00;
12542;PMS3003;6337;49.556;25.594;2023-03-03T11:31:12;72.45;28.60;
12542;PMS3003;6337;49.556;25.594;2023-03-03T11:33:44;65.60;30.15;
12542;PMS3003;6337;49.556;25.594;2023-03-03T11:36:18;45.25;24.75;
12542;PMS3003;6337;49.556;25.594;2023-03-03T11:38:52;61.60;27.33;
12542;PMS3003;6337;49.556;25.594;2023-03-03T11:41:24;72.22;28.85;
12542;PMS3003;6337;49.556;25.594;2023-03-03T11:43:55;58.40;26.73;
12542;PMS3003;6337;49.556;25.594;2023-03-03T11:46:28;58.88;23.73;
12542;PMS3003;6337;49.556;25.594;2023-03-03T11:48:57;54.78;24.77;
12542;PMS3003;6337;49.556;25.594;2023-03-03T11:51:31;63.80;26.90;
12542;PMS3003;6337;49.556;25.594;2023-03-03T11:54:04;63.15;26.02;
12542;PMS3003;6337;49.556;25.594;2023-03-03T11:56:38;52.10;23.80;
12542;PMS3003;6337;49.556;25.594;2023-03-03T12:02:02;49.30;22.17;
12542;PMS3003;6337;49.556;25.594;2023-03-03T12:04:46;41.70;21.73;
12542;PMS3003;6337;49.556;25.594;2023-03-03T12:07:21;37.63;18.83;
12542;PMS3003;6337;49.556;25.594;2023-03-03T12:12:59;29.02;15.48;
12542;PMS3003;6337;49.556;25.594;2023-03-03T12:15:31;35.00;16.50;
12542;PMS3003;6337;49.556;25.594;2023-03-03T12:18:09;43.83;17.88;
12542;PMS3003;6337;49.556;25.594;2023-03-03T12:20:42;33.45;16.92;
12542;PMS3003;6337;49.556;25.594;2023-03-03T12:23:17;36.40;17.00;
12542;PMS3003;6337;49.556;25.594;2023-03-03T12:26:03;39.27;18.83;
12542;PMS3003;6337;49.556;25.594;2023-03-03T12:28:35;42.50;16.47;
12542;PMS3003;6337;49.556;25.594;2023-03-03T12:31:15;50.60;21.10;
12542;PMS3003;6337;49.556;25.594;2023-03-03T12:33:51;39.83;19.45;
12542;PMS3003;6337;49.556;25.594;2023-03-03T12:36:42;32.80;17.37;
12542;PMS3003;6337;49.556;25.594;2023-03-03T12:39:25;42.23;18.90;
12542;PMS3003;6337;49.556;25.594;2023-03-03T12:41:58;33.80;17.47;
12542;PMS3003;6337;49.556;25.594;2023-03-03T12:44:36;36.20;18.27;
12542;PMS3003;6337;49.556;25.594;2023-03-03T12:47:12;41.37;18.17;
12542;PMS3003;6337;49.556;25.594;2023-03-03T12:49:47;43.97;15.40;
12542;PMS3003;6337;49.556;25.594;2023-03-03T12:52:25;36.90;17.60;
12542;PMS3003;6337;49.556;25.594;2023-03-03T12:55:00;31.13;16.20;
12542;PMS3003;6337;49.556;25.594;2023-03-03T12:57:31;36.97;16.43;
12542;PMS3003;6337;49.556;25.594;2023-03-03T13:00:17;37.30;18.75;
12542;PMS3003;6337;49.556;25.594;2023-03-03T13:02:56;50.37;20.50;
12542;PMS3003;6337;49.556;25.594;2023-03-03T13:05:26;36.80;19.87;
12542;PMS3003;6337;49.556;25.594;2023-03-03T13:08:05;38.57;17.40;
12542;PMS3003;6337;49.556;25.594;2023-03-03T13:10:38;37.33;18.37;
12542;PMS3003;6337;49.556;25.594;2023-03-03T13:13:09;35.33;18.17;
12542;PMS3003;6337;49.556;25.594;2023-03-03T13:15:47;38.42;16.80;
12542;PMS3003;6337;49.556;25.594;2023-03-03T13:18:33;44.60;19.20;
12542;PMS3003;6337;49.556;25.594;2023-03-03T13:21:05;32.95;17.23;
12542;PMS3003;6337;49.556;25.594;2023-03-03T13:23:39;39.63;17.33;
12542;PMS3003;6337;49.556;25.594;2023-03-03T13:26:10;43.30;14.80;
12542;PMS3003;6337;49.556;25.594;2023-03-03T13:28:55;26.60;15.23;
12542;PMS3003;6337;49.556;25.594;2023-03-03T13:31:33;34.50;17.00;
12542;PMS3003;6337;49.556;25.594;2023-03-03T13:36:46;47.20;17.13;
12542;PMS3003;6337;49.556;25.594;2023-03-03T13:39:27;28.33;16.00;
12542;PMS3003;6337;49.556;25.594;2023-03-03T13:42:00;33.58;15.60;
12542;PMS3003;6337;49.556;25.594;2023-03-03T13:47:19;35.73;14.87;
12542;PMS3003;6337;49.556;25.594;2023-03-03T13:50:00;30.93;15.20;
12542;PMS3003;6337;49.556;25.594;2023-03-03T14:27:27;29.00;15.10;
12542;PMS3003;6337;49.556;25.594;2023-03-03T14:30:12;26.58;13.75;
12542;PMS3003;6337;49.556;25.594;2023-03-03T14:33:01;27.13;12.85;
12542;PMS3003;6337;49.556;25.594;2023-03-03T14:35:30;36.27;13.73;
12542;PMS3003;6337;49.556;25.594;2023-03-03T14:38:13;28.00;13.27;
12542;PMS3003;6337;49.556;25.594;2023-03-03T14:40:49;44.57;20.50;
12542;PMS3003;6337;49.556;25.594;2023-03-03T14:43:35;29.25;12.90;
12542;PMS3003;6337;49.556;25.594;2023-03-03T14:46:16;24.83;13.18;
12542;PMS3003;6337;49.556;25.594;2023-03-03T14:48:52;25.58;13.95;
12542;PMS3003;6337;49.556;25.594;2023-03-03T14:51:22;26.98;14.93;
12542;PMS3003;6337;49.556;25.594;2023-03-03T14:53:51;36.90;13.47;
12542;PMS3003;6337;49.556;25.594;2023-03-03T14:56:21;21.40;12.75;
12542;PMS3003;6337;49.556;25.594;2023-03-03T14:59:09;22.60;10.70;
12542;PMS3003;6337;49.556;25.594;2023-03-03T15:01:41;31.90;13.38;
12542;PMS3003;6337;49.556;25.594;2023-03-03T15:04:22;23.27;11.88;
12542;PMS3003;6337;49.556;25.594;2023-03-03T15:07:14;21.00;12.43;
12542;PMS3003;6337;49.556;25.594;2023-03-03T15:10:00;19.40;10.43;
12542;PMS3003;6337;49.556;25.594;2023-03-03T15:12:33;19.03;9.53;
12542;PMS3003;6337;49.556;25.594;2023-03-03T15:15:11;21.43;11.37;
12542;PMS3003;6337;49.556;25.594;2023-03-03T15:17:52;23.47;11.97;
12542;PMS3003;6337;49.556;25.594;2023-03-03T15:20:23;23.33;11.70;
12542;PMS3003;6337;49.556;25.594;2023-03-03T15:23:04;24.73;12.23;
12542;PMS3003;6337;49.556;25.594;2023-03-03T15:25:40;24.98;13.60;
12542;PMS3003;6337;49.556;25.594;2023-03-03T15:28:26;30.77;14.33;
12542;PMS3003;6337;49.556;25.594;2023-03-03T15:31:13;23.77;13.57;
12542;PMS3003;6337;49.556;25.594;2023-03-03T15:34:00;26.63;13.50;
12542;PMS3003;6337;49.556;25.594;2023-03-03T15:36:30;25.48;13.38;
12542;PMS3003;6337;49.556;25.594;2023-03-03T15:39:07;36.50;15.60;
12542;PMS3003;6337;49.556;25.594;2023-03-03T15:41:41;36.57;16.40;
12542;PMS3003;6337;49.556;25.594;2023-03-03T15:44:15;34.67;14.82;
12542;PMS3003;6337;49.556;25.594;2023-03-03T15:52:17;27.67;14.38;
12542;PMS3003;6337;49.556;25.594;2023-03-03T15:54:53;31.75;16.98;
12542;PMS3003;6337;49.556;25.594;2023-03-03T15:57:26;30.63;17.75;
12542;PMS3003;6337;49.556;25.594;2023-03-03T16:00:06;42.20;18.73;
12542;PMS3003;6337;49.556;25.594;2023-03-03T16:02:48;28.73;15.38;
12542;PMS3003;6337;49.556;25.594;2023-03-03T16:05:24;34.90;17.42;
12542;PMS3003;6337;49.556;25.594;2023-03-03T16:08:01;33.50;18.55;
12542;PMS3003;6337;49.556;25.594;2023-03-03T16:10:33;44.20;18.80;
12542;PMS3003;6337;49.556;25.594;2023-03-03T16:13:20;30.73;16.20;
12542;PMS3003;6337;49.556;25.594;2023-03-03T16:15:56;31.73;18.63;
12542;PMS3003;6337;49.556;25.594;2023-03-03T16:18:30;37.65;19.27;
12542;PMS3003;6337;49.556;25.594;2023-03-03T16:21:13;31.33;16.48;
12542;PMS3003;6337;49.556;25.594;2023-03-03T16:24:04;41.58;20.48;
12542;PMS3003;6337;49.556;25.594;2023-03-03T16:26:40;46.33;20.00;
12542;PMS3003;6337;49.556;25.594;2023-03-03T16:29:17;37.10;17.10;
12542;PMS3003;6337;49.556;25.594;2023-03-03T16:31:53;37.58;16.83;
12542;PMS3003;6337;49.556;25.594;2023-03-03T16:34:27;51.20;19.50;
12542;PMS3003;6337;49.556;25.594;2023-03-03T16:37:11;32.58;17.75;
12542;PMS3003;6337;49.556;25.594;2023-03-03T16:39:50;40.60;18.07;
12542;PMS3003;6337;49.556;25.594;2023-03-03T16:42:23;46.47;20.67;
12542;PMS3003;6337;49.556;25.594;2023-03-03T16:45:00;31.93;17.33;
12542;PMS3003;6337;49.556;25.594;2023-03-03T16:47:37;37.97;17.90;
12542;PMS3003;6337;49.556;25.594;2023-03-03T16:50:43;43.05;20.30;
12542;PMS3003;6337;49.556;25.594;2023-03-03T16:53:26;39.50;17.27;
12542;PMS3003;6337;49.556;25.594;2023-03-03T16:56:01;49.47;21.20;
12542;PMS3003;6337;49.556;25.594;2023-03-03T16:58:34;47.83;18.95;
12542;PMS3003;6337;49.556;25.594;2023-03-03T17:01:19;55.95;19.48;
12542;PMS3003;6337;49.556;25.594;2023-03-03T17:04:04;42.35;19.20;
12542;PMS3003;6337;49.556;25.594;2023-03-03T17:06:54;40.55;18.85;
12542;PMS3003;6337;49.556;25.594;2023-03-03T17:09:32;42.75;21.23;
12542;PMS3003;6337;49.556;25.594;2023-03-03T17:15:08;56.65;23.02;
12542;PMS3003;6337;49.556;25.594;2023-03-03T17:17:41;40.53;20.25;
12542;PMS3003;6337;49.556;25.594;2023-03-03T17:20:27;44.80;20.98;
12542;PMS3003;6337;49.556;25.594;2023-03-03T17:23:11;49.38;21.00;
12542;PMS3003;6337;49.556;25.594;2023-03-03T17:25:46;51.42;19.38;
12542;PMS3003;6337;49.556;25.594;2023-03-03T17:28:21;45.05;21.77;
12542;PMS3003;6337;49.556;25.594;2023-03-03T17:30:58;41.30;20.83;
12542;PMS3003;6337;49.556;25.594;2023-03-03T17:36:33;47.92;23.70;
12542;PMS3003;6337;49.556;25.594;2023-03-03T17:39:09;48.13;22.20;
12542;PMS3003;6337;49.556;25.594;2023-03-03T17:41:48;46.35;24.15;
12542;PMS3003;6337;49.556;25.594;2023-03-03T17:44:33;42.50;23.63;
12542;PMS3003;6337;49.556;25.594;2023-03-03T18:05:57;55.50;24.63;
12542;PMS3003;6337;49.556;25.594;2023-03-03T18:08:57;51.65;23.02;
12542;PMS3003;6337;49.556;25.594;2023-03-03T18:11:58;52.50;23.27;
12542;PMS3003;6337;49.556;25.594;2023-03-03T18:14:52;42.65;22.90;
12542;PMS3003;6337;49.556;25.594;2023-03-03T18:17:25;45.10;21.25;
12542;PMS3003;6337;49.556;25.594;2023-03-03T18:19:58;51.40;25.58;
12542;PMS3003;6337;49.556;25.594;2023-03-03T18:25:50;55.22;23.10;
12542;PMS3003;6337;49.556;25.594;2023-03-03T18:28:42;48.92;22.48;
12542;PMS3003;6337;49.556;25.594;2023-03-03T18:31:28;43.95;23.67;
12542;PMS3003;6337;49.556;25.594;2023-03-03T18:34:32;44.53;23.63;
12542;PMS3003;6337;49.556;25.594;2023-03-03T18:37:01;45.97;22.17;
12542;PMS3003;6337;49.556;25.594;2023-03-03T18:40:14;45.10;22.65;
12542;PMS3003;6337;49.556;25.594;2023-03-03T18:48:45;49.15;21.42;
12542;PMS3003;6337;49.556;25.594;2023-03-03T19:04:02;42.47;22.35;
12542;PMS3003;6337;49.556;25.594;2023-03-03T19:12:54;49.75;22.05;
12542;PMS3003;6337;49.556;25.594;2023-03-03T19:18:15;52.38;24.40;
12542;PMS3003;6337;49.556;25.594;2023-03-03T19:23:33;51.25;23.00;
12542;PMS3003;6337;49.556;25.594;2023-03-03T19:28:58;59.15;23.42;
12542;PMS3003;6337;49.556;25.594;2023-03-03T19:31:29;45.50;22.17;
12542;PMS3003;6337;49.556;25.594;2023-03-03T19:34:12;47.28;23.48;
12542;PMS3003;6337;49.556;25.594;2023-03-03T19:37:03;46.60;20.73;
12542;PMS3003;6337;49.556;25.594;2023-03-03T19:39:55;49.10;24.13;
12542;PMS3003;6337;49.556;25.594;2023-03-03T19:42:35;47.63;22.35;
12542;PMS3003;6337;49.556;25.594;2023-03-03T19:45:24;41.33;19.90;
12542;PMS3003;6337;49.556;25.594;2023-03-03T19:47:56;42.33;21.40;
12542;PMS3003;6337;49.556;25.594;2023-03-03T19:50:33;50.53;23.73;
12542;PMS3003;6337;49.556;25.594;2023-03-03T19:53:16;42.92;20.50;
12542;PMS3003;6337;49.556;25.594;2023-03-03T19:56:27;43.40;21.83;
12542;PMS3003;6337;49.556;25.594;2023-03-03T19:59:29;50.83;24.03;
12542;PMS3003;6337;49.556;25.594;2023-03-03T20:02:13;56.67;23.93;
12542;PMS3003;6337;49.556;25.594;2023-03-03T20:05:06;46.20;23.15;
12542;PMS3003;6337;49.556;25.594;2023-03-03T20:07:57;46.07;24.13;
12542;PMS3003;6337;49.556;25.594;2023-03-03T20:16:11;48.00;20.70;
12542;PMS3003;6337;49.556;25.594;2023-03-03T20:18:53;50.57;21.87;
12542;PMS3003;6337;49.556;25.594;2023-03-03T20:21:46;45.87;21.87;
12542;PMS3003;6337;49.556;25.594;2023-03-03T20:24:25;48.15;22.23;
12542;PMS3003;6337;49.556;25.594;2023-03-03T20:27:08;49.20;24.60;
12542;PMS3003;6337;49.556;25.594;2023-03-03T20:30:01;45.65;23.88;
12542;PMS3003;6337;49.556;25.594;2023-03-03T20:35:31;49.42;25.02;
12542;PMS3003;6337;49.556;25.594;2023-03-03T20:38:08;46.42;24.70;
12542;PMS3003;6337;49.556;25.594;2023-03-03T20:40:43;50.83;24.07;
12542;PMS3003;6337;49.556;25.594;2023-03-03T20:43:21;54.03;24.98;
12542;PMS3003;6337;49.556;25.594;2023-03-03T20:45:59;49.17;23.20;
12542;PMS3003;6337;49.556;25.594;2023-03-03T20:48:48;54.00;27.07;
12542;PMS3003;6337;49.556;25.594;2023-03-03T20:51:26;49.40;24.23;
12542;PMS3003;6337;49.556;25.594;2023-03-03T20:54:01;71.43;26.93;
12542;PMS3003;6337;49.556;25.594;2023-03-03T20:56:38;49.80;25.70;
12542;PMS3003;6337;49.556;25.594;2023-03-03T20:59:15;57.40;27.77;
12542;PMS3003;6337;49.556;25.594;2023-03-03T21:02:03;55.65;27.05;
12542;PMS3003;6337;49.556;25.594;2023-03-03T21:04:36;57.50;26.50;
12542;PMS3003;6337;49.556;25.594;2023-03-03T21:07:05;52.20;26.93;
12542;PMS3003;6337;49.556;25.594;2023-03-03T21:09:34;53.97;27.90;
12542;PMS3003;6337;49.556;25.594;2023-03-03T21:12:08;58.47;28.33;
12542;PMS3003;6337;49.556;25.594;2023-03-03T21:14:39;66.40;29.97;
12542;PMS3003;6337;49.556;25.594;2023-03-03T21:22:47;68.10;29.27;
12542;PMS3003;6337;49.556;25.594;2023-03-03T21:28:11;62.47;33.25;
12542;PMS3003;6337;49.556;25.594;2023-03-03T21:33:42;67.10;26.40;
12542;PMS3003;6337;49.556;25.594;2023-03-03T21:36:10;55.63;30.47;
12542;PMS3003;6337;49.556;25.594;2023-03-03T21:38:43;52.23;27.13;
12542;PMS3003;6337;49.556;25.594;2023-03-03T21:41:13;70.73;31.70;
12542;PMS3003;6337;49.556;25.594;2023-03-03T21:43:51;57.80;31.05;
12542;PMS3003;6337;49.556;25.594;2023-03-03T21:46:22;59.30;29.08;
12542;PMS3003;6337;49.556;25.594;2023-03-03T21:48:58;63.97;28.23;
12542;PMS3003;6337;49.556;25.594;2023-03-03T21:51:28;68.35;29.52;
12542;PMS3003;6337;49.556;25.594;2023-03-03T21:54:14;58.47;27.57;
12542;PMS3003;6337;49.556;25.594;2023-03-03T21:56:47;54.78;26.35;
12542;PMS3003;6337;49.556;25.594;2023-03-03T21:59:16;56.33;28.67;
12542;PMS3003;6337;49.556;25.594;2023-03-03T22:01:57;63.22;30.42;
12542;PMS3003;6337;49.556;25.594;2023-03-03T22:04:39;61.47;28.48;
12542;PMS3003;6337;49.556;25.594;2023-03-03T22:07:12;55.90;24.40;
12542;PMS3003;6337;49.556;25.594;2023-03-03T22:09:47;66.47;27.33;
12542;PMS3003;6337;49.556;25.594;2023-03-03T22:12:19;65.00;28.35;
12542;PMS3003;6337;49.556;25.594;2023-03-03T22:14:50;56.83;27.70;
12542;PMS3003;6337;49.556;25.594;2023-03-03T22:17:20;56.20;28.80;
12542;PMS3003;6337;49.556;25.594;2023-03-03T22:19:51;66.07;30.55;
12542;PMS3003;6337;49.556;25.594;2023-03-03T22:22:19;51.78;25.45;
12542;PMS3003;6337;49.556;25.594;2023-03-03T22:24:53;69.90;27.98;
12542;PMS3003;6337;49.556;25.594;2023-03-03T22:27:21;55.53;28.42;
12542;PMS3003;6337;49.556;25.594;2023-03-03T22:29:53;57.00;26.90;
12542;PMS3003;6337;49.556;25.594;2023-03-03T22:32:22;57.08;28.60;
12542;PMS3003;6337;49.556;25.594;2023-03-03T22:34:49;61.40;27.55;
12542;PMS3003;6337;49.556;25.594;2023-03-03T22:37:18;58.35;27.55;
12542;PMS3003;6337;49.556;25.594;2023-03-03T22:39:48;64.95;30.77;
12542;PMS3003;6337;49.556;25.594;2023-03-03T22:42:22;59.20;27.55;
12542;PMS3003;6337;49.556;25.594;2023-03-03T22:44:51;54.30;26.98;
12542;PMS3003;6337;49.556;25.594;2023-03-03T22:47:26;51.08;27.45;
12542;PMS3003;6337;49.556;25.594;2023-03-03T22:49:57;50.28;26.17;
12542;PMS3003;6337;49.556;25.594;2023-03-03T22:52:25;53.75;25.38;
12542;PMS3003;6337;49.556;25.594;2023-03-03T22:55:07;54.40;28.23;
12542;PMS3003;6337;49.556;25.594;2023-03-03T22:57:42;69.53;27.10;
12542;PMS3003;6337;49.556;25.594;2023-03-03T23:00:18;61.83;27.40;
12542;PMS3003;6337;49.556;25.594;2023-03-03T23:02:46;55.70;26.38;
12542;PMS3003;6337;49.556;25.594;2023-03-03T23:05:16;56.47;26.52;
12542;PMS3003;6337;49.556;25.594;2023-03-03T23:07:44;64.55;27.17;
12542;PMS3003;6337;49.556;25.594;2023-03-03T23:10:13;58.80;27.83;
12542;PMS3003;6337;49.556;25.594;2023-03-03T23:12:45;57.42;26.13;
12542;PMS3003;6337;49.556;25.594;2023-03-03T23:15:12;65.97;27.63;
12542;PMS3003;6337;49.556;25.594;2023-03-03T23:17:42;65.40;27.23;
12542;PMS3003;6337;49.556;25.594;2023-03-03T23:20:15;58.88;26.48;
12542;PMS3003;6337;49.556;25.594;2023-03-03T23:22:43;51.58;25.55;
12542;PMS3003;6337;49.556;25.594;2023-03-03T23:25:13;65.70;28.70;
12542;PMS3003;6337;49.556;25.594;2023-03-03T23:27:42;51.28;24.73;
12542;PMS3003;6337;49.556;25.594;2023-03-03T23:30:17;57.78;26.38;
12542;PMS3003;6337;49.556;25.594;2023-03-03T23:32:45;57.70;25.30;
12542;PMS3003;6337;49.556;25.594;2023-03-03T23:35:22;59.40;27.65;
12542;PMS3003;6337;49.556;25.594;2023-03-03T23:37:49;57.60;26.63;
12542;PMS3003;6337;49.556;25.594;2023-03-03T23:40:19;54.67;24.90;
12542;PMS3003;6337;49.556;25.594;2023-03-03T23:42:54;52.17;22.75;
12542;PMS3003;6337;49.556;25.594;2023-03-03T23:48:23;66.78;26.27;
12542;PMS3003;6337;49.556;25.594;2023-03-03T23:51:06;61.22;25.65;
12542;PMS3003;6337;49.556;25.594;2023-03-03T23:53:36;60.67;26.63;
12542;PMS3003;6337;49.556;25.594;2023-03-03T23:56:27;75.47;30.15;
12542;PMS3003;6337;49.556;25.594;2023-03-03T23:59:12;66.32;26.63;
